createdAt,value
2022-10-22T00:00:37.189Z,3.08
2022-10-22T00:03:03.934Z,3.13
2022-10-22T00:05:30.644Z,2.20
2022-10-22T00:07:57.443Z,3.13
2022-10-22T00:10:24.099Z,1.83
2022-10-22T00:12:50.867Z,1.95
2022-10-22T00:15:17.701Z,2.60
2022-10-22T00:17:44.450Z,2.05
2022-10-22T00:20:11.551Z,2.40
2022-10-22T00:22:38.211Z,2.38
2022-10-22T00:25:05.118Z,3.55
2022-10-22T00:27:31.852Z,2.55
2022-10-22T00:29:58.508Z,2.10
2022-10-22T00:32:25.162Z,2.10
2022-10-22T00:34:51.913Z,2.58
2022-10-22T00:37:18.599Z,1.73
2022-10-22T00:39:45.245Z,1.73
2022-10-22T00:42:24.145Z,1.88
2022-10-22T00:45:09.697Z,1.90
2022-10-22T00:47:41.587Z,1.90
2022-10-22T00:50:11.988Z,2.17
2022-10-22T00:52:38.984Z,1.30
2022-10-22T00:55:06.072Z,1.77
2022-10-22T00:57:32.772Z,1.45
2022-10-22T01:00:00.291Z,1.50
2022-10-22T01:02:27.652Z,1.90
2022-10-22T01:04:54.349Z,2.10
2022-10-22T01:07:22.703Z,2.55
2022-10-22T01:10:17.504Z,2.25
2022-10-22T01:13:15.652Z,1.83
2022-10-22T01:15:48.441Z,2.25
2022-10-22T01:18:32.745Z,1.92
2022-10-22T01:21:21.034Z,1.98
2022-10-22T01:24:08.821Z,2.63
2022-10-22T01:26:50.502Z,2.08
2022-10-22T01:29:29.553Z,2.80
2022-10-22T01:31:59.984Z,1.92
2022-10-22T01:34:26.671Z,2.72
2022-10-22T01:36:53.414Z,2.95
2022-10-22T01:39:20.127Z,2.45
2022-10-22T01:41:46.913Z,2.10
2022-10-22T01:44:30.617Z,2.15
2022-10-22T01:47:22.171Z,1.73
2022-10-22T01:50:13.611Z,2.53
2022-10-22T01:53:06.705Z,2.42
2022-10-22T01:55:48.942Z,2.03
2022-10-22T01:58:30.231Z,1.98
2022-10-22T02:01:00.939Z,3.20
2022-10-22T02:03:31.224Z,3.33
2022-10-22T02:06:01.679Z,2.17
2022-10-22T02:08:31.115Z,1.92
2022-10-22T02:10:57.993Z,3.53
2022-10-22T02:13:33.279Z,3.33
2022-10-22T02:15:59.993Z,1.90
2022-10-22T02:18:28.541Z,1.40
2022-10-22T02:20:56.069Z,2.28
2022-10-22T02:23:22.814Z,2.20
2022-10-22T02:25:52.117Z,1.75
2022-10-22T02:28:21.784Z,1.83
2022-10-22T02:30:52.027Z,1.85
2022-10-22T02:33:21.506Z,1.55
2022-10-22T02:35:48.157Z,2.53
2022-10-22T02:38:14.932Z,2.10
2022-10-22T02:40:41.697Z,1.92
2022-10-22T02:43:08.468Z,3.38
2022-10-22T02:45:35.245Z,2.10
2022-10-22T02:48:02.104Z,2.38
2022-10-22T02:50:28.809Z,2.33
2022-10-22T02:52:55.506Z,3.35
2022-10-22T02:55:22.209Z,2.05
2022-10-22T02:57:49.192Z,1.70
2022-10-22T03:00:16.159Z,2.75
2022-10-22T03:02:42.871Z,1.70
2022-10-22T03:05:09.834Z,2.15
2022-10-22T03:07:36.499Z,1.77
2022-10-22T03:10:03.816Z,1.60
2022-10-22T03:12:30.552Z,1.33
2022-10-22T03:14:57.264Z,1.88
2022-10-22T03:17:24.446Z,1.83
2022-10-22T03:19:51.120Z,1.13
2022-10-22T03:22:35.799Z,3.45
2022-10-22T03:25:07.779Z,1.75
2022-10-22T03:27:35.078Z,1.10
2022-10-22T03:30:01.776Z,1.38
2022-10-22T03:32:28.501Z,1.60
2022-10-22T03:34:55.212Z,1.85
2022-10-22T03:37:21.968Z,1.33
2022-10-22T03:39:48.656Z,1.70
2022-10-22T03:42:16.228Z,1.50
2022-10-22T03:44:42.875Z,3.08
2022-10-22T03:47:10.420Z,1.25
2022-10-22T03:49:37.091Z,1.33
2022-10-22T03:52:08.208Z,1.52
2022-10-22T03:54:36.069Z,1.00
2022-10-22T03:57:03.704Z,1.13
2022-10-22T03:59:37.672Z,1.38
2022-10-22T04:02:04.482Z,1.27
2022-10-22T04:04:31.306Z,2.42
2022-10-22T04:06:57.963Z,1.15
2022-10-22T04:09:24.690Z,1.95
2022-10-22T04:11:51.391Z,0.85
2022-10-22T04:14:18.223Z,1.35
2022-10-22T04:16:44.921Z,1.88
2022-10-22T04:19:11.593Z,1.40
2022-10-22T04:21:38.267Z,1.40
2022-10-22T04:24:05.034Z,1.48
2022-10-22T04:26:31.700Z,2.00
2022-10-22T04:28:58.483Z,1.73
2022-10-22T04:31:25.549Z,1.63
2022-10-22T04:33:57.464Z,1.83
2022-10-22T04:36:24.566Z,2.42
2022-10-22T04:38:58.780Z,2.15
2022-10-22T04:41:27.500Z,1.50
2022-10-22T04:43:55.066Z,1.80
2022-10-22T04:46:22.070Z,1.02
2022-10-22T04:48:48.823Z,3.65
2022-10-22T04:51:17.306Z,1.58
2022-10-22T04:53:44.048Z,1.58
2022-10-22T04:56:11.221Z,2.50
2022-10-22T04:58:38.188Z,1.27
2022-10-22T05:01:41.684Z,2.00
2022-10-22T05:04:11.997Z,2.20
2022-10-22T05:06:38.735Z,1.95
2022-10-22T05:09:07.371Z,2.33
2022-10-22T05:11:38.330Z,1.80
2022-10-22T05:14:06.008Z,1.95
2022-10-22T05:16:32.845Z,1.60
2022-10-22T05:19:00.618Z,2.78
2022-10-22T05:21:27.616Z,2.40
2022-10-22T05:23:54.880Z,1.67
2022-10-22T05:26:21.978Z,1.95
2022-10-22T05:28:49.261Z,3.58
2022-10-22T05:31:15.999Z,1.88
2022-10-22T05:33:42.910Z,2.10
2022-10-22T05:36:13.703Z,2.55
2022-10-22T05:38:40.354Z,2.53
2022-10-22T05:41:09.742Z,1.80
2022-10-22T05:43:36.722Z,1.95
2022-10-22T05:46:11.343Z,3.08
2022-10-22T05:48:38.488Z,1.88
2022-10-22T05:51:06.359Z,2.45
2022-10-22T05:53:33.836Z,1.80
2022-10-22T05:56:05.614Z,2.15
2022-10-22T05:58:32.386Z,3.08
2022-10-22T06:01:29.446Z,1.73
2022-10-22T06:03:57.343Z,2.17
2022-10-22T06:06:43.494Z,1.73
2022-10-22T06:09:22.397Z,2.17
2022-10-22T06:11:49.236Z,1.70
2022-10-22T06:14:16.119Z,2.15
2022-10-22T06:16:43.258Z,3.05
2022-10-22T06:19:13.668Z,3.17
2022-10-22T06:21:40.326Z,2.47
2022-10-22T06:24:07.456Z,2.30
2022-10-22T06:26:34.165Z,2.67
2022-10-22T06:29:00.992Z,2.65
2022-10-22T06:31:27.902Z,2.03
2022-10-22T06:33:56.180Z,2.80
2022-10-22T06:36:23.460Z,4.40
2022-10-22T06:38:54.000Z,3.47
2022-10-22T06:41:23.036Z,3.45
2022-10-22T06:43:53.507Z,3.47
2022-10-22T06:46:21.095Z,4.00
2022-10-22T06:48:52.524Z,4.05
2022-10-22T06:51:19.315Z,2.72
2022-10-22T06:53:46.173Z,2.65
2022-10-22T06:56:14.930Z,3.17
2022-10-22T06:58:41.799Z,3.88
2022-10-22T07:01:12.287Z,3.33
2022-10-22T07:03:39.494Z,4.32
2022-10-22T07:06:08.259Z,3.95
2022-10-22T07:08:35.544Z,4.53
2022-10-22T07:11:10.079Z,3.53
2022-10-22T07:13:36.852Z,4.05
2022-10-22T07:16:04.381Z,3.95
2022-10-22T07:18:31.265Z,3.85
2022-10-22T07:20:58.205Z,3.92
2022-10-22T07:23:25.277Z,4.70
2022-10-22T07:25:52.397Z,5.10
2022-10-22T07:28:22.522Z,3.88
2022-10-22T07:30:49.385Z,3.80
2022-10-22T07:33:16.183Z,3.13
2022-10-22T07:35:43.120Z,4.38
2022-10-22T07:38:09.886Z,3.55
2022-10-22T07:40:36.739Z,5.80
2022-10-22T07:43:03.756Z,3.20
2022-10-22T07:45:30.578Z,3.35
2022-10-22T07:47:57.328Z,3.92
2022-10-22T07:50:24.028Z,3.00
2022-10-22T07:52:51.556Z,3.50
2022-10-22T07:55:19.664Z,2.95
2022-10-22T07:57:46.465Z,5.05
2022-10-22T08:00:16.223Z,3.92
2022-10-22T08:02:43.293Z,3.92
2022-10-22T08:05:10.418Z,4.05
2022-10-22T08:07:37.111Z,4.10
2022-10-22T08:10:04.008Z,4.32
2022-10-22T08:12:30.938Z,3.17
2022-10-22T08:14:57.694Z,3.38
2022-10-22T08:17:24.380Z,3.30
2022-10-22T08:19:51.101Z,3.55
2022-10-22T08:22:17.860Z,5.80
2022-10-22T08:24:44.625Z,4.15
2022-10-22T08:27:11.410Z,2.67
2022-10-22T08:29:38.211Z,3.30
2022-10-22T08:32:05.188Z,3.42
2022-10-22T08:34:32.001Z,2.97
2022-10-22T08:36:58.702Z,3.28
2022-10-22T08:39:25.630Z,4.40
2022-10-22T08:42:14.340Z,3.70
2022-10-22T08:45:08.963Z,4.78
2022-10-22T08:47:44.622Z,3.05
2022-10-22T08:50:12.861Z,3.08
2022-10-22T08:52:40.559Z,3.05
2022-10-22T08:55:12.562Z,4.65
2022-10-22T08:57:57.335Z,3.33
2022-10-22T09:00:50.473Z,3.90
2022-10-22T09:03:23.507Z,4.97
2022-10-22T09:06:26.295Z,3.03
2022-10-22T09:08:53.273Z,4.93
2022-10-22T09:11:24.803Z,3.90
2022-10-22T09:13:51.569Z,2.95
2022-10-22T09:16:21.150Z,3.88
2022-10-22T09:19:06.242Z,3.40
2022-10-22T09:21:51.700Z,3.97
2022-10-22T09:24:38.694Z,5.47
2022-10-22T09:27:11.669Z,3.42
2022-10-22T09:29:38.547Z,3.07
2022-10-22T09:32:05.514Z,3.65
2022-10-22T09:34:32.561Z,2.80
2022-10-22T09:37:04.753Z,5.25
2022-10-22T09:39:43.804Z,4.35
2022-10-22T09:42:10.925Z,3.35
2022-10-22T09:44:38.084Z,2.97
2022-10-22T09:47:37.335Z,3.42
2022-10-22T09:50:31.214Z,3.17
2022-10-22T09:53:01.840Z,3.30
2022-10-22T09:55:28.647Z,3.65
2022-10-22T09:57:56.456Z,2.58
2022-10-22T10:00:25.122Z,3.33
2022-10-22T10:02:57.211Z,3.72
2022-10-22T10:05:34.724Z,3.08
2022-10-22T10:08:15.286Z,4.25
2022-10-22T10:10:52.259Z,4.80
2022-10-22T10:13:35.783Z,6.68
2022-10-22T10:16:14.425Z,5.38
2022-10-22T10:18:55.008Z,3.03
2022-10-22T10:21:38.365Z,2.88
2022-10-22T10:24:16.212Z,3.50
2022-10-22T10:26:53.830Z,3.28
2022-10-22T10:30:03.381Z,3.47
2022-10-22T10:32:55.215Z,3.15
2022-10-22T10:35:55.219Z,2.70
2022-10-22T10:38:29.680Z,3.25
2022-10-22T10:41:38.938Z,2.95
2022-10-22T10:44:30.511Z,3.60
2022-10-22T10:47:22.547Z,2.88
2022-10-22T10:49:49.350Z,2.88
2022-10-22T10:52:36.579Z,3.50
2022-10-22T10:55:19.261Z,2.75
2022-10-22T10:58:04.010Z,2.40
2022-10-22T11:00:32.845Z,3.55
2022-10-22T11:03:24.617Z,2.97
2022-10-22T11:06:04.320Z,2.40
2022-10-22T11:08:33.101Z,3.20
2022-10-22T11:11:07.812Z,3.88
2022-10-22T11:13:49.428Z,2.97
2022-10-22T11:16:23.709Z,2.58
2022-10-22T11:18:55.344Z,3.22
2022-10-22T11:21:27.369Z,2.97
2022-10-22T11:24:08.008Z,3.20
2022-10-22T11:26:49.276Z,3.80
2022-10-22T11:29:21.796Z,3.03
2022-10-22T11:31:49.235Z,3.08
2022-10-22T11:34:33.115Z,2.70
2022-10-22T11:37:00.753Z,3.08
2022-10-22T11:39:31.203Z,2.85
2022-10-22T11:42:04.124Z,2.38
2022-10-22T11:44:32.543Z,3.40
2022-10-22T11:47:10.080Z,2.70
2022-10-22T11:50:16.738Z,2.08
2022-10-22T11:53:27.691Z,2.35
2022-10-22T11:55:59.972Z,2.17
2022-10-22T11:58:28.060Z,3.33
2022-10-22T12:00:56.036Z,3.15
2022-10-22T12:03:28.443Z,4.32
2022-10-22T12:06:13.268Z,3.67
2022-10-22T12:09:01.225Z,3.03
2022-10-22T12:11:39.248Z,3.47
2022-10-22T12:14:32.536Z,2.55
2022-10-22T12:17:02.964Z,3.72
2022-10-22T12:19:31.967Z,3.35
2022-10-22T12:22:01.242Z,4.25
2022-10-22T12:24:32.936Z,2.60
2022-10-22T12:26:59.700Z,3.05
2022-10-22T12:29:26.801Z,3.53
2022-10-22T12:31:54.920Z,1.88
2022-10-22T12:34:23.289Z,2.55
2022-10-22T12:36:51.479Z,2.50
2022-10-22T12:39:19.940Z,1.85
2022-10-22T12:41:46.771Z,2.28
2022-10-22T12:44:15.050Z,2.60
2022-10-22T12:46:42.117Z,2.83
2022-10-22T12:49:14.241Z,1.98
2022-10-22T12:51:40.900Z,2.40
2022-10-22T12:54:09.513Z,2.50
2022-10-22T12:56:36.518Z,3.00
2022-10-22T12:59:27.140Z,2.45
2022-10-22T13:01:54.118Z,2.55
2022-10-22T13:04:22.952Z,2.22
2022-10-22T13:07:03.716Z,2.92
2022-10-22T13:09:39.225Z,3.00
2022-10-22T13:12:07.132Z,2.15
2022-10-22T13:14:35.424Z,2.20
2022-10-22T13:17:05.184Z,2.30
2022-10-22T13:19:45.205Z,4.28
2022-10-22T13:22:36.283Z,2.33
2022-10-22T13:25:14.852Z,2.08
2022-10-22T13:28:18.994Z,3.55
2022-10-22T13:30:53.498Z,2.72
2022-10-22T13:33:29.600Z,2.88
2022-10-22T13:35:56.578Z,2.60
2022-10-22T13:38:24.883Z,2.03
2022-10-22T13:40:51.683Z,2.10
2022-10-22T13:43:18.785Z,2.28
2022-10-22T13:45:46.330Z,2.67
2022-10-22T13:48:16.878Z,2.55
2022-10-22T13:50:43.734Z,2.75
2022-10-22T13:53:18.883Z,3.63
2022-10-22T13:55:46.088Z,2.60
2022-10-22T13:58:20.148Z,1.95
2022-10-22T14:00:59.420Z,2.60
2022-10-22T14:03:28.580Z,2.60
2022-10-22T14:05:55.541Z,1.77
2022-10-22T14:08:23.473Z,2.28
2022-10-22T14:10:50.689Z,3.47
2022-10-22T14:13:19.681Z,2.92
2022-10-22T14:15:47.891Z,2.08
2022-10-22T14:18:26.331Z,2.63
2022-10-22T14:21:01.075Z,2.50
2022-10-22T14:23:29.184Z,3.47
2022-10-22T14:25:56.221Z,2.22
2022-10-22T14:28:23.116Z,2.25
2022-10-22T14:30:50.094Z,1.70
2022-10-22T14:33:21.071Z,1.80
2022-10-22T14:35:48.728Z,1.98
2022-10-22T14:38:15.857Z,1.98
2022-10-22T14:40:42.999Z,1.48
2022-10-22T14:43:15.062Z,2.30
2022-10-22T14:45:51.614Z,2.17
2022-10-22T14:50:46.205Z,2.50
2022-10-22T14:53:13.711Z,1.90
2022-10-22T14:55:41.052Z,2.10
2022-10-22T14:58:07.884Z,2.05
2022-10-22T15:00:36.849Z,1.48
2022-10-22T15:03:04.590Z,1.95
2022-10-22T15:05:36.999Z,2.30
2022-10-22T15:08:12.046Z,2.17
2022-10-22T15:10:40.796Z,2.63
2022-10-22T15:13:08.284Z,1.75
2022-10-22T15:15:39.510Z,2.17
2022-10-22T15:18:06.819Z,5.78
2022-10-22T15:20:33.619Z,3.50
2022-10-22T15:23:00.691Z,2.03
2022-10-22T15:25:28.630Z,3.40
2022-10-22T15:27:59.678Z,2.60
2022-10-22T15:30:31.481Z,2.45
2022-10-22T15:32:58.279Z,2.40
2022-10-22T15:35:27.733Z,2.40
2022-10-22T15:37:54.436Z,2.35
2022-10-22T15:40:21.160Z,3.88
2022-10-22T15:42:47.930Z,2.10
2022-10-22T15:45:15.789Z,2.28
2022-10-22T15:47:47.428Z,3.60
2022-10-22T15:50:14.901Z,3.03
2022-10-22T15:52:41.600Z,2.85
2022-10-22T15:55:10.479Z,2.97
2022-10-22T15:57:37.966Z,2.67
2022-10-22T16:00:09.550Z,3.05
2022-10-22T16:02:36.256Z,2.80
2022-10-22T16:05:03.090Z,2.42
2022-10-22T16:07:30.104Z,3.75
2022-10-22T16:10:01.572Z,3.05
2022-10-22T16:12:28.337Z,2.13
2022-10-22T16:14:55.020Z,2.55
2022-10-22T16:17:21.747Z,2.05
2022-10-22T16:19:48.559Z,2.40
2022-10-22T16:22:15.736Z,2.45
2022-10-22T16:24:42.466Z,2.80
2022-10-22T16:27:09.260Z,2.75
2022-10-22T16:29:37.922Z,2.78
2022-10-22T16:32:04.833Z,4.10
2022-10-22T16:34:31.530Z,2.90
2022-10-22T16:36:58.228Z,2.90
2022-10-22T16:39:25.094Z,2.67
2022-10-22T16:41:51.916Z,3.28
2022-10-22T16:44:18.785Z,2.53
2022-10-22T16:46:45.427Z,3.03
2022-10-22T16:49:12.101Z,3.28
2022-10-22T16:51:39.344Z,2.58
2022-10-22T16:54:08.416Z,2.95
2022-10-22T16:56:38.168Z,3.15
2022-10-22T16:59:04.908Z,2.95
2022-10-22T17:01:31.694Z,2.30
2022-10-22T17:04:01.377Z,2.47
2022-10-22T17:06:28.064Z,3.35
2022-10-22T17:08:54.820Z,3.17
2022-10-22T17:11:23.429Z,3.72
2022-10-22T17:13:52.571Z,3.10
2022-10-22T17:16:20.585Z,3.92
2022-10-22T17:18:47.442Z,4.80
2022-10-22T17:21:14.457Z,4.57
2022-10-22T17:23:42.518Z,3.40
2022-10-22T17:26:13.092Z,3.33
2022-10-22T17:28:39.815Z,2.92
2022-10-22T17:31:27.860Z,3.60
2022-10-22T17:33:55.500Z,3.35
2022-10-22T17:36:22.857Z,2.70
2022-10-22T17:38:51.820Z,3.67
2022-10-22T17:41:23.556Z,3.10
2022-10-22T17:43:50.333Z,3.33
2022-10-22T17:46:22.101Z,3.20
2022-10-22T17:48:52.665Z,4.30
2022-10-22T17:51:19.723Z,3.85
2022-10-22T17:53:46.705Z,4.05
2022-10-22T17:56:17.803Z,4.32
2022-10-22T17:58:44.526Z,3.63
2022-10-22T18:01:22.662Z,3.63
2022-10-22T18:03:49.491Z,3.30
2022-10-22T18:06:16.265Z,3.45
2022-10-22T18:08:43.192Z,3.33
2022-10-22T18:11:11.303Z,5.03
2022-10-22T18:13:38.198Z,5.80
2022-10-22T18:16:05.251Z,7.43
2022-10-22T18:18:32.060Z,5.93
2022-10-22T18:21:00.500Z,4.85
2022-10-22T18:23:27.456Z,5.38
2022-10-22T18:25:54.192Z,5.35
2022-10-22T18:28:20.911Z,5.28
2022-10-22T18:30:47.837Z,4.25
2022-10-22T18:33:15.505Z,4.03
2022-10-22T18:35:42.280Z,3.45
2022-10-22T18:38:09.529Z,3.72
2022-10-22T18:40:36.693Z,4.55
2022-10-22T18:43:03.605Z,3.33
2022-10-22T18:45:30.341Z,4.60
2022-10-22T18:47:58.764Z,2.92
2022-10-22T18:50:25.480Z,3.83
2022-10-22T18:52:52.482Z,3.72
2022-10-22T18:55:19.166Z,4.47
2022-10-22T18:57:45.881Z,3.72
2022-10-22T19:00:13.742Z,3.30
2022-10-22T19:02:40.796Z,3.13
2022-10-22T19:05:08.320Z,4.85
2022-10-22T19:07:36.655Z,4.07
2022-10-22T19:10:03.839Z,4.60
2022-10-22T19:12:30.596Z,3.67
2022-10-22T19:14:57.305Z,4.00
2022-10-22T19:17:24.185Z,3.50
2022-10-22T19:19:50.839Z,4.20
2022-10-22T19:22:17.516Z,4.10
2022-10-22T19:24:44.315Z,3.38
2022-10-22T19:27:11.098Z,3.38
2022-10-22T19:29:40.554Z,3.67
2022-10-22T19:34:35.051Z,3.17
2022-10-22T19:37:01.867Z,3.28
2022-10-22T19:39:28.536Z,4.13
2022-10-22T19:41:55.346Z,3.72
2022-10-22T19:44:22.118Z,3.35
2022-10-22T19:46:48.913Z,3.72
2022-10-22T19:49:18.912Z,3.92
2022-10-22T19:51:48.740Z,3.05
2022-10-22T19:54:18.497Z,3.65
2022-10-22T19:56:45.550Z,2.88
2022-10-22T19:59:12.191Z,3.88
2022-10-22T20:01:38.897Z,3.60
2022-10-22T20:04:05.754Z,3.03
2022-10-22T20:06:32.440Z,3.35
2022-10-22T20:08:59.374Z,2.42
2022-10-22T20:11:28.039Z,3.25
2022-10-22T20:13:55.076Z,3.58
2022-10-22T20:16:23.147Z,3.65
2022-10-22T20:18:50.753Z,3.67
2022-10-22T20:21:19.195Z,4.43
2022-10-22T20:23:46.162Z,3.63
2022-10-22T20:26:13.416Z,3.03
2022-10-22T20:28:40.205Z,3.72
2022-10-22T20:31:09.971Z,3.47
2022-10-22T20:33:36.770Z,3.10
2022-10-22T20:36:16.519Z,3.88
2022-10-22T20:38:43.419Z,3.47
2022-10-22T20:41:15.466Z,3.58
2022-10-22T20:43:47.133Z,4.18
2022-10-22T20:46:27.894Z,3.42
2022-10-22T20:49:15.388Z,3.53
2022-10-22T20:51:42.154Z,3.40
2022-10-22T20:54:08.951Z,4.38
2022-10-22T20:56:36.737Z,3.75
2022-10-22T20:59:08.176Z,3.65
2022-10-22T21:01:43.520Z,3.65
2022-10-22T21:04:10.640Z,3.65
2022-10-22T21:06:41.449Z,3.88
2022-10-22T21:09:09.031Z,3.05
2022-10-22T21:11:36.414Z,3.03
2022-10-22T21:14:03.989Z,4.18
2022-10-22T21:16:30.821Z,4.70
2022-10-22T21:18:57.571Z,3.83
2022-10-22T21:21:24.401Z,3.10
2022-10-22T21:23:51.448Z,3.50
2022-10-22T21:26:19.248Z,3.55
2022-10-22T21:28:46.173Z,3.58
2022-10-22T21:31:18.775Z,2.97
2022-10-22T21:33:45.457Z,2.33
2022-10-22T21:36:12.487Z,3.15
2022-10-22T21:38:39.305Z,2.58
2022-10-22T21:41:06.817Z,3.33
2022-10-22T21:43:33.950Z,2.95
2022-10-22T21:46:13.782Z,2.58
2022-10-22T21:48:40.630Z,2.97
2022-10-22T21:51:12.427Z,4.38
2022-10-22T21:53:39.249Z,4.60
2022-10-22T21:56:06.642Z,3.65
2022-10-22T21:58:36.236Z,3.20
2022-10-22T22:01:03.356Z,3.40
2022-10-22T22:03:30.405Z,3.00
2022-10-22T22:05:58.868Z,3.10
2022-10-22T22:08:25.761Z,3.90
2022-10-22T22:10:53.631Z,4.63
2022-10-22T22:13:24.883Z,4.70
2022-10-22T22:15:52.580Z,2.97
2022-10-22T22:18:19.824Z,2.80
2022-10-22T22:20:46.555Z,3.30
2022-10-22T22:23:13.297Z,3.53
2022-10-22T22:25:40.048Z,5.95
2022-10-22T22:28:06.753Z,3.22
2022-10-22T22:30:33.539Z,2.97
2022-10-22T22:33:00.367Z,2.97
2022-10-22T22:35:27.322Z,3.47
2022-10-22T22:37:54.188Z,2.85
2022-10-22T22:40:20.959Z,2.35
2022-10-22T22:42:47.981Z,2.47
2022-10-22T22:45:14.746Z,3.60
2022-10-22T22:47:41.742Z,3.13
2022-10-22T22:50:08.813Z,3.08
2022-10-22T22:52:35.461Z,2.38
2022-10-22T22:55:02.140Z,3.53
2022-10-22T22:57:28.780Z,2.55
2022-10-22T22:59:55.418Z,3.10
2022-10-22T23:02:22.111Z,2.63
2022-10-22T23:04:48.766Z,3.00
2022-10-22T23:07:15.410Z,3.22
2022-10-22T23:09:42.194Z,2.58
2022-10-22T23:12:08.891Z,3.20
2022-10-22T23:14:35.635Z,3.50
2022-10-22T23:17:02.429Z,2.95
2022-10-22T23:19:29.113Z,2.65
2022-10-22T23:21:56.069Z,2.75
2022-10-22T23:24:24.755Z,2.40
2022-10-22T23:26:52.199Z,2.22
2022-10-22T23:29:22.699Z,3.33
2022-10-22T23:31:49.516Z,2.65
2022-10-22T23:36:46.379Z,2.38
2022-10-22T23:39:14.912Z,3.33
2022-10-22T23:41:41.657Z,2.33
2022-10-22T23:44:08.754Z,2.35
2022-10-22T23:46:35.642Z,2.47
2022-10-22T23:49:02.411Z,2.30
2022-10-22T23:51:29.114Z,2.22
2022-10-22T23:53:57.885Z,3.20
2022-10-22T23:56:24.715Z,4.50
2022-10-22T23:58:52.036Z,2.60
